createdAt,value
2023-05-13T00:00:38.352Z,10.30
2023-05-13T00:03:05.031Z,10.30
2023-05-13T00:05:31.679Z,10.30
2023-05-13T00:07:58.241Z,10.30
2023-05-13T00:10:24.834Z,10.20
2023-05-13T00:12:51.452Z,10.20
2023-05-13T00:15:18.164Z,10.20
2023-05-13T00:17:44.768Z,10.20
2023-05-13T00:20:11.521Z,10.20
2023-05-13T00:22:38.049Z,10.10
2023-05-13T00:25:04.941Z,10.20
2023-05-13T00:27:31.512Z,10.20
2023-05-13T00:29:58.253Z,10.20
2023-05-13T00:32:24.938Z,10.30
2023-05-13T00:34:51.506Z,10.20
2023-05-13T00:37:18.231Z,10.20
2023-05-13T00:39:44.896Z,10.20
2023-05-13T00:42:11.575Z,10.10
2023-05-13T00:44:38.446Z,10.10
2023-05-13T00:47:10.452Z,10.10
2023-05-13T00:49:37.203Z,10.10
2023-05-13T00:52:04.470Z,10.10
2023-05-13T00:54:31.243Z,10.10
2023-05-13T00:56:57.848Z,10.10
2023-05-13T00:59:26.768Z,10.10
2023-05-13T01:01:59.097Z,10.10
2023-05-13T01:04:54.452Z,10.10
2023-05-13T01:07:38.866Z,10.30
2023-05-13T01:10:15.627Z,10.20
2023-05-13T01:12:44.618Z,10.20
2023-05-13T01:15:21.904Z,10.10
2023-05-13T01:18:04.947Z,10.10
2023-05-13T01:20:33.069Z,10.00
2023-05-13T01:22:59.766Z,10.10
2023-05-13T01:25:26.526Z,10.00
2023-05-13T01:27:53.714Z,10.00
2023-05-13T01:30:21.088Z,10.00
2023-05-13T01:32:49.598Z,10.00
2023-05-13T01:35:16.991Z,10.00
2023-05-13T01:37:43.779Z,10.00
2023-05-13T01:40:28.231Z,10.00
2023-05-13T01:42:58.121Z,10.00
2023-05-13T01:45:24.724Z,10.10
2023-05-13T01:47:51.320Z,10.00
2023-05-13T01:50:17.911Z,10.10
2023-05-13T01:52:44.499Z,10.00
2023-05-13T01:55:11.092Z,10.10
2023-05-13T01:57:37.699Z,10.10
2023-05-13T02:00:04.837Z,10.00
2023-05-13T02:02:31.509Z,10.00
2023-05-13T02:04:58.154Z,10.00
2023-05-13T02:07:24.722Z,10.00
2023-05-13T02:09:51.250Z,10.00
2023-05-13T02:12:17.794Z,10.00
2023-05-13T02:14:44.385Z,10.10
2023-05-13T02:17:11.001Z,10.10
2023-05-13T02:19:37.524Z,10.00
2023-05-13T02:22:04.325Z,10.00
2023-05-13T02:24:31.079Z,10.00
2023-05-13T02:26:57.613Z,10.00
2023-05-13T02:29:24.198Z,10.00
2023-05-13T02:31:50.795Z,10.00
2023-05-13T02:34:17.371Z,10.00
2023-05-13T02:36:43.978Z,9.90
2023-05-13T02:39:10.529Z,10.00
2023-05-13T02:41:37.071Z,10.00
2023-05-13T02:44:03.815Z,9.90
2023-05-13T02:46:30.541Z,9.90
2023-05-13T02:48:57.240Z,10.00
2023-05-13T02:51:23.863Z,10.10
2023-05-13T02:53:50.399Z,10.00
2023-05-13T02:56:16.973Z,10.00
2023-05-13T02:58:43.550Z,10.00
2023-05-13T03:01:10.159Z,9.90
2023-05-13T03:03:37.142Z,9.90
2023-05-13T03:06:04.791Z,10.00
2023-05-13T03:08:31.402Z,9.90
2023-05-13T03:10:58.772Z,9.90
2023-05-13T03:13:25.330Z,9.90
2023-05-13T03:15:51.873Z,9.90
2023-05-13T03:18:18.428Z,10.00
2023-05-13T03:20:45.039Z,9.90
2023-05-13T03:23:11.650Z,9.90
2023-05-13T03:25:38.214Z,9.90
2023-05-13T03:28:04.891Z,9.90
2023-05-13T03:30:31.600Z,9.80
2023-05-13T03:32:58.209Z,9.90
2023-05-13T03:35:24.849Z,9.80
2023-05-13T03:37:51.397Z,9.80
2023-05-13T03:40:19.006Z,9.80
2023-05-13T03:42:45.817Z,9.70
2023-05-13T03:45:12.412Z,9.80
2023-05-13T03:47:39.262Z,9.80
2023-05-13T03:50:06.531Z,9.70
2023-05-13T03:52:33.120Z,9.80
2023-05-13T03:54:59.683Z,9.70
2023-05-13T03:57:26.275Z,9.80
2023-05-13T03:59:52.829Z,9.80
2023-05-13T04:02:19.412Z,9.80
2023-05-13T04:04:46.064Z,9.80
2023-05-13T04:07:12.679Z,9.80
2023-05-13T04:09:39.268Z,9.80
2023-05-13T04:12:06.110Z,9.80
2023-05-13T04:14:32.656Z,9.80
2023-05-13T04:16:59.212Z,9.70
2023-05-13T04:19:25.836Z,9.70
2023-05-13T04:21:52.402Z,9.80
2023-05-13T04:24:18.943Z,9.80
2023-05-13T04:26:45.484Z,9.80
2023-05-13T04:29:12.012Z,9.80
2023-05-13T04:31:38.702Z,9.80
2023-05-13T04:34:05.274Z,9.80
2023-05-13T04:36:31.834Z,9.80
2023-05-13T04:38:58.408Z,9.80
2023-05-13T04:41:25.073Z,9.80
2023-05-13T04:43:51.674Z,9.90
2023-05-13T04:46:18.310Z,9.90
2023-05-13T04:48:45.192Z,9.90
2023-05-13T04:51:12.139Z,9.80
2023-05-13T04:53:39.192Z,9.80
2023-05-13T04:56:06.171Z,9.80
2023-05-13T04:58:32.737Z,9.80
2023-05-13T05:00:59.298Z,9.80
2023-05-13T05:03:25.900Z,9.80
2023-05-13T05:05:52.486Z,9.80
2023-05-13T05:08:19.048Z,9.80
2023-05-13T05:10:45.661Z,9.80
2023-05-13T05:13:12.292Z,9.80
2023-05-13T05:15:38.892Z,9.70
2023-05-13T05:18:05.589Z,9.70
2023-05-13T05:20:32.208Z,9.70
2023-05-13T05:22:58.854Z,9.70
2023-05-13T05:25:26.053Z,9.80
2023-05-13T05:27:52.637Z,9.80
2023-05-13T05:30:19.335Z,9.80
2023-05-13T05:32:46.160Z,9.80
2023-05-13T05:35:13.007Z,9.80
2023-05-13T05:37:39.591Z,9.90
2023-05-13T05:40:06.876Z,9.80
2023-05-13T05:42:33.446Z,9.80
2023-05-13T05:45:00.016Z,9.80
2023-05-13T05:47:26.657Z,9.80
2023-05-13T05:49:53.208Z,9.80
2023-05-13T05:52:19.744Z,9.80
2023-05-13T05:54:46.336Z,9.80
2023-05-13T05:57:12.916Z,9.80
2023-05-13T05:59:39.457Z,9.80
2023-05-13T06:02:06.943Z,10.00
2023-05-13T06:04:33.645Z,10.10
2023-05-13T06:07:00.374Z,10.10
2023-05-13T06:09:26.972Z,10.00
2023-05-13T06:11:53.527Z,9.90
2023-05-13T06:14:20.102Z,9.90
2023-05-13T06:16:46.666Z,9.90
2023-05-13T06:19:13.287Z,9.90
2023-05-13T06:21:39.937Z,9.90
2023-05-13T06:24:06.872Z,10.00
2023-05-13T06:26:33.415Z,10.00
2023-05-13T06:28:59.978Z,10.00
2023-05-13T06:31:26.677Z,10.10
2023-05-13T06:33:53.295Z,10.10
2023-05-13T06:36:19.871Z,10.00
2023-05-13T06:38:46.505Z,10.00
2023-05-13T06:41:13.049Z,10.00
2023-05-13T06:43:39.647Z,10.10
2023-05-13T06:46:06.252Z,10.10
2023-05-13T06:48:32.821Z,10.10
2023-05-13T06:50:59.366Z,10.10
2023-05-13T06:53:25.982Z,10.10
2023-05-13T06:55:52.549Z,10.20
2023-05-13T06:58:19.098Z,10.20
2023-05-13T07:00:46.433Z,10.20
2023-05-13T07:03:13.043Z,10.20
2023-05-13T07:05:39.593Z,10.20
2023-05-13T07:08:06.239Z,10.20
2023-05-13T07:10:33.660Z,10.20
2023-05-13T07:13:01.507Z,10.20
2023-05-13T07:15:28.435Z,10.20
2023-05-13T07:17:55.055Z,10.20
2023-05-13T07:20:21.940Z,10.20
2023-05-13T07:22:49.597Z,10.30
2023-05-13T07:25:16.812Z,10.30
2023-05-13T07:27:43.750Z,10.30
2023-05-13T07:30:11.455Z,10.50
2023-05-13T07:32:38.768Z,10.40
2023-05-13T07:35:06.206Z,10.30
2023-05-13T07:37:32.807Z,10.30
2023-05-13T07:39:59.387Z,10.20
2023-05-13T07:42:25.958Z,10.20
2023-05-13T07:44:52.550Z,10.20
2023-05-13T07:47:19.186Z,10.10
2023-05-13T07:49:45.935Z,10.20
2023-05-13T07:52:12.658Z,10.20
2023-05-13T07:54:39.208Z,10.30
2023-05-13T07:57:05.935Z,10.20
2023-05-13T07:59:32.518Z,10.20
2023-05-13T08:01:59.154Z,10.20
2023-05-13T08:04:25.919Z,10.30
2023-05-13T08:06:52.859Z,10.30
2023-05-13T08:09:19.416Z,10.40
2023-05-13T08:11:45.952Z,10.40
2023-05-13T08:14:12.525Z,10.40
2023-05-13T08:16:39.176Z,10.50
2023-05-13T08:19:05.851Z,10.50
2023-05-13T08:21:32.590Z,10.50
2023-05-13T08:23:59.175Z,10.60
2023-05-13T08:26:25.728Z,10.50
2023-05-13T08:28:54.732Z,10.50
2023-05-13T08:31:21.857Z,10.60
2023-05-13T08:33:48.424Z,10.50
2023-05-13T08:36:15.019Z,10.40
2023-05-13T08:38:41.537Z,10.50
2023-05-13T08:41:08.525Z,10.60
2023-05-13T08:43:36.317Z,10.70
2023-05-13T08:46:04.134Z,10.70
2023-05-13T08:48:31.627Z,10.70
2023-05-13T08:50:58.834Z,10.60
2023-05-13T08:53:25.633Z,10.60
2023-05-13T08:55:53.120Z,10.60
2023-05-13T08:58:19.697Z,10.70
2023-05-13T09:00:48.248Z,10.80
2023-05-13T09:03:15.115Z,10.90
2023-05-13T09:05:43.841Z,11.10
2023-05-13T09:08:10.667Z,11.20
2023-05-13T09:10:37.611Z,11.10
2023-05-13T09:13:05.621Z,10.90
2023-05-13T09:15:32.919Z,11.00
2023-05-13T09:18:04.101Z,10.90
2023-05-13T09:20:31.201Z,10.90
2023-05-13T09:23:02.788Z,10.80
2023-05-13T09:25:30.723Z,10.60
2023-05-13T09:28:02.610Z,10.70
2023-05-13T09:30:37.468Z,10.70
2023-05-13T09:33:13.884Z,10.70
2023-05-13T09:35:51.349Z,10.70
2023-05-13T09:38:25.550Z,10.80
2023-05-13T09:41:00.587Z,10.70
2023-05-13T09:43:39.234Z,10.70
2023-05-13T09:46:05.838Z,10.70
2023-05-13T09:48:33.947Z,10.70
2023-05-13T09:51:00.775Z,10.90
2023-05-13T09:53:28.308Z,11.10
2023-05-13T09:55:57.523Z,11.40
2023-05-13T09:58:25.365Z,11.60
2023-05-13T10:00:52.479Z,11.80
2023-05-13T10:03:19.332Z,11.60
2023-05-13T10:05:46.393Z,11.60
2023-05-13T10:08:14.519Z,11.60
2023-05-13T10:10:41.952Z,11.60
2023-05-13T10:13:10.296Z,11.60
2023-05-13T10:15:42.751Z,11.50
2023-05-13T10:18:10.537Z,11.60
2023-05-13T10:20:37.152Z,11.60
2023-05-13T10:23:03.999Z,11.60
2023-05-13T10:25:30.684Z,11.60
2023-05-13T10:27:57.688Z,11.60
2023-05-13T10:30:25.119Z,11.70
2023-05-13T10:32:52.203Z,11.70
2023-05-13T10:35:20.036Z,11.70
2023-05-13T10:37:59.878Z,11.70
2023-05-13T10:41:09.075Z,11.70
2023-05-13T10:43:36.237Z,11.80
2023-05-13T10:46:08.229Z,11.90
2023-05-13T10:48:49.328Z,11.90
2023-05-13T10:51:17.639Z,11.90
2023-05-13T10:53:48.515Z,11.90
2023-05-13T10:56:16.043Z,11.90
2023-05-13T10:58:42.606Z,11.90
2023-05-13T11:01:25.172Z,11.80
2023-05-13T11:03:54.262Z,11.80
2023-05-13T11:06:22.692Z,11.90
2023-05-13T11:08:52.137Z,11.90
2023-05-13T11:11:23.233Z,11.90
2023-05-13T11:13:54.913Z,11.90
2023-05-13T11:16:22.141Z,11.80
2023-05-13T11:18:49.195Z,11.80
2023-05-13T11:21:16.007Z,11.90
2023-05-13T11:24:00.752Z,12.00
2023-05-13T11:26:40.878Z,12.00
2023-05-13T11:29:07.455Z,12.10
2023-05-13T11:31:49.776Z,12.00
2023-05-13T11:34:22.958Z,11.90
2023-05-13T11:37:09.197Z,11.90
2023-05-13T11:39:38.238Z,11.80
2023-05-13T11:42:08.166Z,11.80
2023-05-13T11:44:35.344Z,11.80
2023-05-13T11:47:04.287Z,11.80
2023-05-13T11:49:37.322Z,11.90
2023-05-13T11:52:07.780Z,11.80
2023-05-13T11:54:50.484Z,11.90
2023-05-13T11:57:26.815Z,12.00
2023-05-13T11:59:57.793Z,11.90
2023-05-13T12:02:29.783Z,12.00
2023-05-13T12:05:00.470Z,12.00
2023-05-13T12:07:27.673Z,12.00
2023-05-13T12:09:57.440Z,12.10
2023-05-13T12:12:24.441Z,12.10
2023-05-13T12:14:51.200Z,12.20
2023-05-13T12:17:18.999Z,12.20
2023-05-13T12:20:04.215Z,12.20
2023-05-13T12:22:31.162Z,12.10
2023-05-13T12:24:57.717Z,12.20
2023-05-13T12:27:24.310Z,12.30
2023-05-13T12:29:55.014Z,12.30
2023-05-13T12:32:23.833Z,12.40
2023-05-13T12:34:51.082Z,12.40
2023-05-13T12:37:17.797Z,12.50
2023-05-13T12:39:44.692Z,12.60
2023-05-13T12:42:18.230Z,12.60
2023-05-13T12:44:45.582Z,12.60
2023-05-13T12:47:13.416Z,12.70
2023-05-13T12:50:06.639Z,12.60
2023-05-13T12:52:33.209Z,12.70
2023-05-13T12:54:59.778Z,12.60
2023-05-13T12:57:26.357Z,12.50
2023-05-13T12:59:52.886Z,12.60
2023-05-13T13:02:19.449Z,12.60
2023-05-13T13:04:46.041Z,12.50
2023-05-13T13:07:12.711Z,12.60
2023-05-13T13:09:39.348Z,12.80
2023-05-13T13:12:06.351Z,12.80
2023-05-13T13:14:33.312Z,12.80
2023-05-13T13:16:59.891Z,12.90
2023-05-13T13:19:26.618Z,12.80
2023-05-13T13:21:53.258Z,12.90
2023-05-13T13:24:19.846Z,13.00
2023-05-13T13:26:46.449Z,13.00
2023-05-13T13:29:13.024Z,13.00
2023-05-13T13:31:39.608Z,13.00
2023-05-13T13:34:06.227Z,13.10
2023-05-13T13:36:32.772Z,13.20
2023-05-13T13:38:59.311Z,13.20
2023-05-13T13:41:25.871Z,13.50
2023-05-13T13:43:52.463Z,13.70
2023-05-13T13:46:19.070Z,13.90
2023-05-13T13:48:45.651Z,14.20
2023-05-13T13:51:12.238Z,14.40
2023-05-13T13:53:38.805Z,14.50
2023-05-13T13:56:05.625Z,14.50
2023-05-13T13:58:32.187Z,14.60
2023-05-13T14:00:58.770Z,14.50
2023-05-13T14:03:25.419Z,14.40
2023-05-13T14:05:52.017Z,14.20
2023-05-13T14:08:18.616Z,14.30
2023-05-13T14:10:45.389Z,14.30
2023-05-13T14:13:11.995Z,14.40
2023-05-13T14:15:38.612Z,14.40
2023-05-13T14:18:06.191Z,14.30
2023-05-13T14:20:32.854Z,14.20
2023-05-13T14:22:59.723Z,14.20
2023-05-13T14:25:26.325Z,14.10
2023-05-13T14:27:53.010Z,14.10
2023-05-13T14:30:19.840Z,14.20
2023-05-13T14:32:46.675Z,14.10
2023-05-13T14:35:13.974Z,14.00
2023-05-13T14:37:41.067Z,14.00
2023-05-13T14:40:08.234Z,14.00
2023-05-13T14:42:34.798Z,14.00
2023-05-13T14:45:01.332Z,14.10
2023-05-13T14:47:27.950Z,14.00
2023-05-13T14:49:54.566Z,14.00
2023-05-13T14:52:21.122Z,14.30
2023-05-13T14:54:47.708Z,14.20
2023-05-13T14:57:14.312Z,14.30
2023-05-13T14:59:40.876Z,14.20
2023-05-13T15:02:08.156Z,14.20
2023-05-13T15:04:34.733Z,14.20
2023-05-13T15:07:02.572Z,14.10
2023-05-13T15:09:29.139Z,14.00
2023-05-13T15:11:55.708Z,14.00
2023-05-13T15:14:23.947Z,13.90
2023-05-13T15:16:50.521Z,13.80
2023-05-13T15:19:17.876Z,13.80
2023-05-13T15:21:44.571Z,13.70
2023-05-13T15:24:11.150Z,13.90
2023-05-13T15:26:37.731Z,13.80
2023-05-13T15:29:04.264Z,13.80
2023-05-13T15:31:31.153Z,13.80
2023-05-13T15:33:57.798Z,13.80
2023-05-13T15:36:24.407Z,13.80
2023-05-13T15:38:51.245Z,13.90
2023-05-13T15:41:17.803Z,13.80
2023-05-13T15:43:44.374Z,13.90
2023-05-13T15:46:11.116Z,13.90
2023-05-13T15:48:37.735Z,13.70
2023-05-13T15:51:04.492Z,13.80
2023-05-13T15:53:31.293Z,13.70
2023-05-13T15:55:57.861Z,13.70
2023-05-13T15:58:24.421Z,13.60
2023-05-13T16:00:50.981Z,13.60
2023-05-13T16:03:17.542Z,13.60
2023-05-13T16:05:44.111Z,13.60
2023-05-13T16:08:10.648Z,13.60
2023-05-13T16:10:37.199Z,13.50
2023-05-13T16:13:04.129Z,13.50
2023-05-13T16:15:30.739Z,13.50
2023-05-13T16:17:57.391Z,13.50
2023-05-13T16:20:24.360Z,13.40
2023-05-13T16:22:51.200Z,13.40
2023-05-13T16:25:17.751Z,13.40
2023-05-13T16:27:44.488Z,13.40
2023-05-13T16:30:11.368Z,13.40
2023-05-13T16:32:38.061Z,13.40
2023-05-13T16:35:05.174Z,13.50
2023-05-13T16:37:31.809Z,13.50
2023-05-13T16:39:58.396Z,13.50
2023-05-13T16:42:25.382Z,13.50
2023-05-13T16:44:52.065Z,13.50
2023-05-13T16:47:18.763Z,13.60
2023-05-13T16:49:45.346Z,13.60
2023-05-13T16:52:11.943Z,13.50
2023-05-13T16:54:38.570Z,13.50
2023-05-13T16:57:05.660Z,13.50
2023-05-13T16:59:32.472Z,13.50
2023-05-13T17:02:00.000Z,13.50
2023-05-13T17:04:26.646Z,13.40
2023-05-13T17:06:53.193Z,13.40
2023-05-13T17:09:19.843Z,13.30
2023-05-13T17:11:46.398Z,13.40
2023-05-13T17:14:12.993Z,13.30
2023-05-13T17:16:39.581Z,13.30
2023-05-13T17:19:06.168Z,13.30
2023-05-13T17:21:32.749Z,13.40
2023-05-13T17:23:59.541Z,13.30
2023-05-13T17:26:26.104Z,13.30
2023-05-13T17:28:52.706Z,13.40
2023-05-13T17:31:19.351Z,13.30
2023-05-13T17:33:45.999Z,13.20
2023-05-13T17:36:12.598Z,13.20
2023-05-13T17:38:39.211Z,13.20
2023-05-13T17:41:05.885Z,13.20
2023-05-13T17:43:32.592Z,13.10
2023-05-13T17:45:59.255Z,13.10
2023-05-13T17:48:26.499Z,13.00
2023-05-13T17:50:53.181Z,13.10
2023-05-13T17:53:20.399Z,13.10
2023-05-13T17:55:48.138Z,13.10
2023-05-13T17:58:18.107Z,13.00
2023-05-13T18:00:44.675Z,13.00
2023-05-13T18:03:11.276Z,12.90
2023-05-13T18:05:38.010Z,13.00
2023-05-13T18:08:04.854Z,12.90
2023-05-13T18:10:31.407Z,12.90
2023-05-13T18:12:58.117Z,12.90
2023-05-13T18:15:24.712Z,12.90
2023-05-13T18:17:51.295Z,12.90
2023-05-13T18:20:18.322Z,12.80
2023-05-13T18:22:44.955Z,12.80
2023-05-13T18:25:11.573Z,12.80
2023-05-13T18:27:38.227Z,12.80
2023-05-13T18:30:06.310Z,12.80
2023-05-13T18:32:32.891Z,12.80
2023-05-13T18:34:59.442Z,12.80
2023-05-13T18:37:26.086Z,12.70
2023-05-13T18:39:52.738Z,12.70
2023-05-13T18:42:19.291Z,12.70
2023-05-13T18:44:45.872Z,12.60
2023-05-13T18:47:12.436Z,12.60
2023-05-13T18:49:39.136Z,12.60
2023-05-13T18:52:06.009Z,12.60
2023-05-13T18:54:32.524Z,12.60
2023-05-13T18:56:59.152Z,12.60
2023-05-13T18:59:25.796Z,12.60
2023-05-13T19:01:52.559Z,12.60
2023-05-13T19:04:19.430Z,12.60
2023-05-13T19:06:46.239Z,12.60
2023-05-13T19:09:12.987Z,12.60
2023-05-13T19:11:39.593Z,12.60
2023-05-13T19:14:06.682Z,12.60
2023-05-13T19:16:33.556Z,12.60
2023-05-13T19:19:00.180Z,12.60
2023-05-13T19:21:26.761Z,12.50
2023-05-13T19:23:53.322Z,12.50
2023-05-13T19:26:20.059Z,12.50
2023-05-13T19:28:47.116Z,12.50
2023-05-13T19:31:13.748Z,12.50
2023-05-13T19:33:40.549Z,12.50
2023-05-13T19:36:08.523Z,12.50
2023-05-13T19:38:35.276Z,12.40
2023-05-13T19:41:01.837Z,12.40
2023-05-13T19:43:28.551Z,12.40
2023-05-13T19:45:55.105Z,12.40
2023-05-13T19:48:21.834Z,12.50
2023-05-13T19:50:48.388Z,12.40
2023-05-13T19:53:15.321Z,12.40
2023-05-13T19:55:41.947Z,12.40
2023-05-13T19:58:08.598Z,12.50
2023-05-13T20:00:35.144Z,12.50
2023-05-13T20:03:01.834Z,12.50
2023-05-13T20:05:28.474Z,12.40
2023-05-13T20:07:55.042Z,12.50
2023-05-13T20:10:22.007Z,12.40
2023-05-13T20:12:48.750Z,12.50
2023-05-13T20:15:17.864Z,12.40
2023-05-13T20:17:45.352Z,12.50
2023-05-13T20:20:12.356Z,12.40
2023-05-13T20:22:38.939Z,12.40
2023-05-13T20:25:05.974Z,12.50
2023-05-13T20:27:32.552Z,12.50
2023-05-13T20:29:59.089Z,12.50
2023-05-13T20:32:25.713Z,12.40
2023-05-13T20:34:52.836Z,12.40
2023-05-13T20:37:21.768Z,12.50
2023-05-13T20:39:50.051Z,12.40
2023-05-13T20:42:16.613Z,12.40
2023-05-13T20:44:43.170Z,12.40
2023-05-13T20:47:09.762Z,12.40
2023-05-13T20:49:36.392Z,12.60
2023-05-13T20:52:03.604Z,12.50
2023-05-13T20:54:30.513Z,12.40
2023-05-13T20:56:57.189Z,12.40
2023-05-13T20:59:23.713Z,12.40
2023-05-13T21:01:50.329Z,12.30
2023-05-13T21:04:17.094Z,12.30
2023-05-13T21:06:44.065Z,12.30
2023-05-13T21:09:10.636Z,12.20
2023-05-13T21:11:37.316Z,12.20
2023-05-13T21:14:03.987Z,12.10
2023-05-13T21:16:30.720Z,12.10
2023-05-13T21:18:57.421Z,12.10
2023-05-13T21:21:24.062Z,12.20
2023-05-13T21:23:50.654Z,12.10
2023-05-13T21:26:17.480Z,12.10
2023-05-13T21:28:44.216Z,12.00
2023-05-13T21:31:10.845Z,12.00
2023-05-13T21:33:37.446Z,12.00
2023-05-13T21:36:04.424Z,11.90
2023-05-13T21:38:30.981Z,11.90
2023-05-13T21:40:58.052Z,11.90
2023-05-13T21:43:24.800Z,12.00
2023-05-13T21:45:51.505Z,12.00
2023-05-13T21:48:18.208Z,12.00
2023-05-13T21:50:44.880Z,11.90
2023-05-13T21:53:11.445Z,11.90
2023-05-13T21:55:38.123Z,11.90
2023-05-13T21:58:04.691Z,11.80
2023-05-13T22:00:31.505Z,11.80
2023-05-13T22:02:58.429Z,11.80
2023-05-13T22:05:25.049Z,11.80
2023-05-13T22:07:51.694Z,11.80
2023-05-13T22:10:18.414Z,11.80
2023-05-13T22:12:44.985Z,11.80
2023-05-13T22:15:12.032Z,11.70
2023-05-13T22:17:38.621Z,11.70
2023-05-13T22:20:06.141Z,11.70
2023-05-13T22:22:32.716Z,11.70
2023-05-13T22:24:59.454Z,11.70
2023-05-13T22:27:26.040Z,11.70
2023-05-13T22:29:52.574Z,11.70
2023-05-13T22:32:19.126Z,11.70
2023-05-13T22:34:45.654Z,11.70
2023-05-13T22:37:12.250Z,11.70
2023-05-13T22:39:38.824Z,11.60
2023-05-13T22:42:05.564Z,11.60
2023-05-13T22:44:32.195Z,11.60
2023-05-13T22:46:58.759Z,11.60
2023-05-13T22:49:25.365Z,11.50
2023-05-13T22:51:52.103Z,11.50
2023-05-13T22:54:18.655Z,11.50
2023-05-13T22:56:45.232Z,11.50
2023-05-13T22:59:11.818Z,11.50
2023-05-13T23:01:38.412Z,11.50
2023-05-13T23:04:05.042Z,11.40
2023-05-13T23:06:31.701Z,11.40
2023-05-13T23:08:58.290Z,11.30
2023-05-13T23:11:24.813Z,11.40
2023-05-13T23:13:51.380Z,11.30
2023-05-13T23:16:18.978Z,11.30
2023-05-13T23:18:45.678Z,11.30
2023-05-13T23:21:12.268Z,11.30
2023-05-13T23:23:38.931Z,11.30
2023-05-13T23:26:05.499Z,11.30
2023-05-13T23:28:32.800Z,11.30
2023-05-13T23:30:59.377Z,11.30
2023-05-13T23:33:26.088Z,11.30
2023-05-13T23:35:56.183Z,11.30
2023-05-13T23:38:23.147Z,11.30
2023-05-13T23:40:50.198Z,11.20
2023-05-13T23:43:16.783Z,11.30
2023-05-13T23:45:43.407Z,11.20
2023-05-13T23:48:09.976Z,11.20
2023-05-13T23:50:36.575Z,11.20
2023-05-13T23:53:03.156Z,11.20
2023-05-13T23:55:29.697Z,11.30
2023-05-13T23:57:56.265Z,11.20
